createdAt,value
2018-07-17T00:00:26.494Z,7.80
2018-07-17T00:02:59.577Z,7.60
2018-07-17T00:05:31.042Z,8.15
2018-07-17T00:08:02.536Z,8.07
2018-07-17T00:10:34.156Z,11.02
2018-07-17T00:13:08.639Z,6.35
2018-07-17T00:15:41.549Z,7.87
2018-07-17T00:18:14.569Z,7.25
2018-07-17T00:20:48.260Z,7.47
2018-07-17T00:23:21.427Z,8.18
2018-07-17T00:25:53.721Z,8.02
2018-07-17T00:28:25.238Z,9.57
2018-07-17T00:30:59.103Z,8.63
2018-07-17T00:33:32.148Z,8.48
2018-07-17T00:36:05.247Z,8.77
2018-07-17T00:38:36.892Z,8.25
2018-07-17T00:41:10.142Z,6.93
2018-07-17T00:43:44.506Z,8.27
2018-07-17T00:46:14.417Z,7.35
2018-07-17T00:48:48.243Z,10.23
2018-07-17T00:51:19.655Z,6.78
2018-07-17T00:53:51.244Z,7.40
2018-07-17T00:56:25.780Z,10.27
2018-07-17T00:58:58.976Z,7.72
2018-07-17T01:01:46.551Z,6.70
2018-07-17T01:04:36.117Z,6.10
2018-07-17T01:07:24.872Z,6.35
2018-07-17T01:10:14.053Z,6.32
2018-07-17T01:12:44.482Z,8.52
2018-07-17T01:15:20.447Z,10.95
2018-07-17T01:17:53.343Z,7.50
2018-07-17T01:20:22.911Z,7.87
2018-07-17T01:22:58.634Z,9.25
2018-07-17T01:25:31.997Z,10.05
2018-07-17T01:28:04.969Z,8.13
2018-07-17T01:30:36.776Z,8.48
2018-07-17T01:33:09.722Z,12.02
2018-07-17T01:35:42.908Z,10.70
2018-07-17T01:38:14.303Z,12.93
2018-07-17T01:40:48.893Z,10.57
2018-07-17T01:43:20.321Z,11.02
2018-07-17T01:45:52.088Z,12.50
2018-07-17T01:48:23.743Z,11.20
2018-07-17T01:50:54.254Z,12.02
2018-07-17T01:53:28.992Z,11.63
2018-07-17T01:56:00.408Z,11.18
2018-07-17T01:58:32.442Z,13.95
2018-07-17T02:01:07.149Z,11.63
2018-07-17T02:03:40.023Z,11.12
2018-07-17T02:06:12.384Z,11.18
2018-07-17T02:08:45.679Z,11.65
2018-07-17T02:11:18.185Z,13.85
2018-07-17T02:13:49.818Z,13.13
2018-07-17T02:16:21.371Z,13.43
2018-07-17T02:18:54.569Z,12.18
2018-07-17T02:21:25.872Z,12.05
2018-07-17T02:24:00.626Z,10.82
2018-07-17T02:26:32.060Z,10.80
2018-07-17T02:29:04.980Z,11.02
2018-07-17T02:31:40.451Z,10.15
2018-07-17T02:34:13.365Z,9.80
2018-07-17T02:36:47.968Z,10.48
2018-07-17T02:39:21.426Z,9.85
2018-07-17T02:41:54.504Z,10.85
2018-07-17T02:44:29.111Z,9.80
2018-07-17T02:47:03.684Z,9.95
2018-07-17T02:49:35.884Z,9.95
2018-07-17T02:52:07.393Z,10.43
2018-07-17T02:54:40.314Z,12.77
2018-07-17T02:57:14.791Z,10.23
2018-07-17T02:59:46.388Z,8.70
2018-07-17T03:02:15.519Z,8.95
2018-07-17T03:04:48.423Z,11.02
2018-07-17T03:07:23.402Z,11.43
2018-07-17T03:09:57.854Z,9.65
2018-07-17T03:12:32.519Z,13.75
2018-07-17T03:15:05.720Z,14.95
2018-07-17T03:17:38.991Z,11.88
2018-07-17T03:20:11.701Z,10.10
2018-07-17T03:22:44.882Z,13.85
2018-07-17T03:25:16.170Z,11.32
2018-07-17T03:27:48.744Z,11.70
2018-07-17T03:30:22.675Z,10.05
2018-07-17T03:32:57.584Z,10.15
2018-07-17T03:35:29.466Z,12.32
2018-07-17T03:38:01.321Z,12.40
2018-07-17T03:40:34.307Z,12.75
2018-07-17T03:43:07.432Z,11.02
2018-07-17T03:45:40.619Z,11.18
2018-07-17T03:48:13.626Z,10.32
2018-07-17T03:50:46.688Z,13.02
2018-07-17T03:53:20.147Z,12.00
2018-07-17T03:55:53.459Z,13.70
2018-07-17T03:58:28.012Z,13.80
2018-07-17T04:01:02.692Z,13.30
2018-07-17T04:03:32.728Z,11.45
2018-07-17T04:06:07.520Z,15.57
2018-07-17T04:08:41.447Z,13.50
2018-07-17T04:11:13.038Z,13.10
2018-07-17T04:13:47.589Z,11.12
2018-07-17T04:16:20.720Z,11.90
2018-07-17T04:18:51.425Z,15.18
2018-07-17T04:21:24.320Z,13.82
2018-07-17T04:23:57.354Z,11.35
2018-07-17T04:26:30.281Z,13.40
2018-07-17T04:29:00.240Z,16.05
2018-07-17T04:31:33.560Z,12.23
2018-07-17T04:34:05.043Z,15.15
2018-07-17T04:36:38.482Z,15.10
2018-07-17T04:39:15.621Z,16.80
2018-07-17T04:41:48.737Z,16.52
2018-07-17T04:44:20.320Z,18.02
2018-07-17T04:46:55.259Z,21.00
2018-07-17T04:49:29.722Z,15.52
2018-07-17T04:52:02.703Z,18.37
2018-07-17T04:54:36.593Z,16.48
2018-07-17T04:57:09.958Z,14.87
2018-07-17T04:59:42.263Z,17.12
2018-07-17T05:02:15.361Z,16.20
2018-07-17T05:04:48.531Z,16.05
2018-07-17T05:07:23.208Z,18.30
2018-07-17T05:09:55.212Z,17.27
2018-07-17T05:12:28.291Z,17.90
2018-07-17T05:15:01.149Z,21.20
2018-07-17T05:17:32.620Z,20.90
2018-07-17T05:20:07.187Z,18.17
2018-07-17T05:22:40.130Z,22.40
2018-07-17T05:25:12.095Z,19.75
2018-07-17T05:27:45.092Z,21.20
2018-07-17T05:30:18.137Z,22.25
2018-07-17T05:32:51.143Z,23.02
2018-07-17T05:35:25.585Z,22.45
2018-07-17T05:37:57.187Z,23.52
2018-07-17T05:40:30.078Z,20.70
2018-07-17T05:43:00.786Z,19.05
2018-07-17T05:45:32.211Z,17.27
2018-07-17T05:48:04.138Z,17.85
2018-07-17T05:50:35.109Z,17.25
2018-07-17T05:53:06.602Z,18.10
2018-07-17T05:55:37.984Z,16.20
2018-07-17T05:58:12.597Z,17.02
2018-07-17T06:00:45.549Z,18.60
2018-07-17T06:03:18.659Z,19.37
2018-07-17T06:05:51.705Z,16.98
2018-07-17T06:08:26.152Z,16.77
2018-07-17T06:10:57.646Z,19.98
2018-07-17T06:13:30.544Z,15.30
2018-07-17T06:16:03.472Z,14.55
2018-07-17T06:18:37.959Z,15.15
2018-07-17T06:21:09.389Z,13.15
2018-07-17T06:23:43.801Z,11.68
2018-07-17T06:26:16.974Z,13.62
2018-07-17T06:28:51.283Z,11.52
2018-07-17T06:31:25.325Z,13.07
2018-07-17T06:33:56.802Z,10.77
2018-07-17T06:36:30.267Z,10.60
2018-07-17T06:39:00.206Z,9.50
2018-07-17T06:41:33.059Z,10.13
2018-07-17T06:44:04.734Z,11.38
2018-07-17T06:46:36.216Z,11.07
2018-07-17T06:49:09.067Z,12.32
2018-07-17T06:51:41.996Z,12.98
2018-07-17T06:54:13.409Z,12.52
2018-07-17T06:56:44.856Z,11.73
2018-07-17T06:59:16.258Z,11.73
2018-07-17T07:01:47.128Z,11.20
2018-07-17T07:04:18.604Z,11.73
2018-07-17T07:06:47.749Z,10.98
2018-07-17T07:09:22.255Z,11.90
2018-07-17T07:11:55.299Z,12.88
2018-07-17T07:14:29.699Z,11.27
2018-07-17T07:16:59.634Z,9.85
2018-07-17T07:19:29.548Z,10.68
2018-07-17T07:21:59.483Z,10.35
2018-07-17T07:24:31.143Z,9.43
2018-07-17T07:27:04.127Z,10.48
2018-07-17T07:29:37.511Z,11.90
2018-07-17T07:32:10.492Z,14.05
2018-07-17T07:34:43.329Z,10.88
2018-07-17T07:37:14.923Z,13.60
2018-07-17T07:39:47.759Z,10.32
2018-07-17T07:42:19.120Z,9.70
2018-07-17T07:44:52.070Z,11.55
2018-07-17T07:47:26.410Z,9.32
2018-07-17T07:49:59.258Z,11.00
2018-07-17T07:52:33.293Z,9.43
2018-07-17T07:55:07.587Z,8.27
2018-07-17T07:57:41.879Z,10.00
2018-07-17T08:00:14.768Z,9.77
2018-07-17T08:02:49.025Z,8.80
2018-07-17T08:05:21.464Z,7.87
2018-07-17T08:07:54.874Z,13.43
2018-07-17T08:10:29.793Z,10.32
2018-07-17T08:13:03.451Z,8.95
2018-07-17T08:15:34.435Z,8.38
2018-07-17T08:18:10.335Z,8.55
2018-07-17T08:20:42.480Z,8.57
2018-07-17T08:23:17.868Z,9.50
2018-07-17T08:25:51.538Z,9.25
2018-07-17T08:28:25.262Z,11.45
2018-07-17T08:31:01.195Z,10.55
2018-07-17T08:33:34.810Z,11.35
2018-07-17T08:36:08.052Z,9.57
2018-07-17T08:38:40.583Z,9.63
2018-07-17T08:41:12.000Z,10.57
2018-07-17T08:43:45.060Z,15.07
2018-07-17T08:46:17.144Z,12.40
2018-07-17T08:48:48.903Z,9.00
2018-07-17T08:51:23.292Z,10.40
2018-07-17T08:53:58.387Z,13.98
2018-07-17T08:56:33.682Z,15.02
2018-07-17T08:59:08.857Z,10.95
2018-07-17T09:01:43.147Z,9.70
2018-07-17T09:04:15.099Z,10.48
2018-07-17T09:06:46.332Z,11.38
2018-07-17T09:09:20.836Z,12.30
2018-07-17T09:11:53.807Z,11.20
2018-07-17T09:14:28.230Z,12.40
2018-07-17T09:16:58.832Z,12.90
2018-07-17T09:19:34.173Z,14.50
2018-07-17T09:22:07.050Z,11.05
2018-07-17T09:24:40.687Z,11.18
2018-07-17T09:27:15.451Z,12.73
2018-07-17T09:29:50.586Z,13.68
2018-07-17T09:32:25.892Z,12.20
2018-07-17T09:34:57.220Z,13.20
2018-07-17T09:37:30.587Z,12.80
2018-07-17T09:40:01.554Z,11.43
2018-07-17T09:42:33.514Z,12.18
2018-07-17T09:45:08.166Z,13.18
2018-07-17T09:47:39.083Z,11.75
2018-07-17T09:50:14.923Z,14.85
2018-07-17T09:52:47.260Z,18.55
2018-07-17T09:55:21.125Z,14.15
2018-07-17T09:57:56.848Z,17.17
2018-07-17T10:00:54.707Z,13.40
2018-07-17T10:03:29.196Z,15.23
2018-07-17T10:06:00.664Z,14.52
2018-07-17T10:08:35.032Z,14.13
2018-07-17T10:11:08.095Z,13.50
2018-07-17T10:13:41.255Z,13.52
2018-07-17T10:16:14.340Z,12.20
2018-07-17T10:18:46.614Z,12.48
2018-07-17T10:21:16.383Z,15.07
2018-07-17T10:23:46.929Z,12.70
2018-07-17T10:26:18.425Z,13.77
2018-07-17T10:28:50.845Z,10.95
2018-07-17T10:31:20.732Z,13.93
2018-07-17T10:33:52.216Z,11.40
2018-07-17T10:36:23.716Z,22.08
2018-07-17T10:38:56.326Z,13.02
2018-07-17T10:41:29.629Z,14.05
2018-07-17T10:44:02.591Z,11.80
2018-07-17T10:46:34.336Z,11.23
2018-07-17T10:49:06.193Z,12.50
2018-07-17T10:51:37.131Z,13.15
2018-07-17T10:54:07.900Z,11.77
2018-07-17T10:56:43.530Z,11.00
2018-07-17T10:59:18.812Z,13.65
2018-07-17T11:01:49.442Z,8.45
2018-07-17T11:04:22.237Z,11.05
2018-07-17T11:06:55.611Z,9.18
2018-07-17T11:09:27.250Z,8.45
2018-07-17T11:12:00.201Z,7.45
2018-07-17T11:14:31.657Z,7.82
2018-07-17T11:17:03.085Z,9.00
2018-07-17T11:19:34.579Z,9.77
2018-07-17T11:22:06.039Z,14.30
2018-07-17T11:24:39.300Z,6.62
2018-07-17T11:27:10.851Z,10.85
2018-07-17T11:29:40.686Z,6.75
2018-07-17T11:32:13.573Z,7.80
2018-07-17T11:34:45.008Z,8.20
2018-07-17T11:37:19.413Z,6.37
2018-07-17T11:39:51.357Z,11.75
2018-07-17T11:42:24.278Z,8.27
2018-07-17T11:44:57.675Z,7.72
2018-07-17T11:47:30.630Z,6.57
2018-07-17T11:50:05.324Z,16.10
2018-07-17T11:52:38.322Z,13.40
2018-07-17T11:55:11.309Z,9.32
2018-07-17T11:57:44.110Z,9.13
2018-07-17T12:00:16.197Z,7.03
2018-07-17T12:02:48.250Z,8.90
2018-07-17T12:05:19.623Z,6.78
2018-07-17T12:07:53.953Z,9.35
2018-07-17T12:10:25.167Z,8.77
2018-07-17T12:12:58.581Z,10.43
2018-07-17T12:15:30.465Z,8.27
2018-07-17T12:18:01.571Z,10.05
2018-07-17T12:20:34.737Z,7.05
2018-07-17T12:23:08.936Z,7.87
2018-07-17T12:25:41.855Z,9.80
2018-07-17T12:28:13.324Z,8.52
2018-07-17T12:30:47.727Z,8.85
2018-07-17T12:33:17.652Z,9.95
2018-07-17T12:35:49.048Z,7.40
2018-07-17T12:38:20.467Z,7.57
2018-07-17T12:40:53.370Z,8.32
2018-07-17T12:43:24.842Z,9.13
2018-07-17T12:45:56.262Z,7.35
2018-07-17T12:48:30.759Z,6.25
2018-07-17T12:51:03.952Z,6.62
2018-07-17T12:53:37.063Z,9.50
2018-07-17T12:56:09.023Z,6.03
2018-07-17T12:58:43.365Z,5.75
2018-07-17T13:01:16.338Z,4.10
2018-07-17T13:03:49.134Z,5.22
2018-07-17T13:06:21.971Z,6.95
2018-07-17T13:08:54.841Z,6.32
2018-07-17T13:11:28.754Z,8.15
2018-07-17T13:14:00.191Z,5.82
2018-07-17T13:16:32.341Z,5.50
2018-07-17T13:19:02.293Z,8.10
2018-07-17T13:21:35.276Z,7.50
2018-07-17T13:24:06.796Z,5.22
2018-07-17T13:26:39.856Z,4.45
2018-07-17T13:29:12.858Z,5.90
2018-07-17T13:31:42.840Z,6.53
2018-07-17T13:34:14.298Z,5.10
2018-07-17T13:36:44.213Z,6.57
2018-07-17T13:39:15.975Z,5.53
2018-07-17T13:41:48.931Z,8.25
2018-07-17T13:44:20.370Z,4.80
2018-07-17T13:46:52.812Z,6.37
2018-07-17T13:49:25.257Z,7.45
2018-07-17T13:51:57.167Z,7.53
2018-07-17T13:54:28.647Z,6.45
2018-07-17T13:57:00.434Z,5.60
2018-07-17T13:59:32.653Z,6.43
2018-07-17T14:02:02.512Z,8.65
2018-07-17T14:04:32.545Z,6.93
2018-07-17T14:07:04.072Z,7.62
2018-07-17T14:09:36.875Z,7.70
2018-07-17T14:12:08.557Z,6.30
2018-07-17T14:14:41.316Z,6.53
2018-07-17T14:17:13.568Z,7.37
2018-07-17T14:19:46.492Z,8.05
2018-07-17T14:22:17.878Z,9.73
2018-07-17T14:24:50.008Z,6.15
2018-07-17T14:27:23.009Z,9.15
2018-07-17T14:29:57.575Z,6.35
2018-07-17T14:32:29.007Z,9.38
2018-07-17T14:34:58.946Z,11.27
2018-07-17T14:37:30.376Z,6.82
2018-07-17T14:40:01.796Z,11.45
2018-07-17T14:42:33.719Z,8.73
2018-07-17T14:45:06.814Z,10.13
2018-07-17T14:47:37.557Z,10.55
2018-07-17T14:50:12.794Z,14.25
2018-07-17T14:52:47.236Z,7.35
2018-07-17T14:55:19.338Z,8.90
2018-07-17T14:57:52.399Z,12.45
2018-07-17T15:00:26.828Z,11.38
2018-07-17T15:02:58.502Z,8.23
2018-07-17T15:05:30.699Z,8.77
2018-07-17T15:08:02.156Z,11.52
2018-07-17T15:10:33.599Z,7.57
2018-07-17T15:13:04.990Z,7.43
2018-07-17T15:15:36.548Z,7.82
2018-07-17T15:18:06.405Z,6.43
2018-07-17T15:20:37.939Z,6.70
2018-07-17T15:23:10.866Z,17.85
2018-07-17T15:25:43.787Z,9.55
2018-07-17T15:28:18.352Z,6.28
2018-07-17T15:30:51.292Z,6.32
2018-07-17T15:33:22.824Z,8.23
2018-07-17T15:35:56.064Z,4.55
2018-07-17T15:38:29.131Z,5.78
2018-07-17T15:41:02.047Z,8.23
2018-07-17T15:43:35.241Z,4.62
2018-07-17T15:46:06.770Z,7.30
2018-07-17T15:48:39.736Z,7.45
2018-07-17T15:51:12.767Z,6.20
2018-07-17T15:53:45.623Z,10.65
2018-07-17T15:56:17.029Z,10.52
2018-07-17T15:58:48.523Z,4.70
2018-07-17T16:01:21.965Z,9.60
2018-07-17T16:03:53.429Z,6.57
2018-07-17T16:06:26.638Z,2.65
2018-07-17T16:08:58.097Z,4.07
2018-07-17T16:11:31.012Z,5.30
2018-07-17T16:14:03.182Z,6.18
2018-07-17T16:16:37.623Z,4.32
2018-07-17T16:19:10.876Z,2.72
2018-07-17T16:21:42.763Z,4.18
2018-07-17T16:24:15.830Z,6.97
2018-07-17T16:26:50.423Z,5.75
2018-07-17T16:29:23.377Z,10.43
2018-07-17T16:31:56.242Z,4.45
2018-07-17T16:34:30.759Z,2.45
2018-07-17T16:37:00.848Z,4.90
2018-07-17T16:39:33.962Z,3.87
2018-07-17T16:42:06.972Z,5.70
2018-07-17T16:44:39.824Z,3.42
2018-07-17T16:47:11.517Z,9.35
2018-07-17T16:49:44.523Z,5.53
2018-07-17T16:52:17.427Z,4.65
2018-07-17T16:54:48.920Z,6.18
2018-07-17T16:57:20.470Z,5.43
2018-07-17T16:59:54.065Z,6.97
2018-07-17T17:02:25.482Z,5.00
2018-07-17T17:04:59.919Z,3.85
2018-07-17T17:07:29.078Z,4.40
2018-07-17T17:09:59.077Z,4.57
2018-07-17T17:12:31.982Z,6.93
2018-07-17T17:15:04.903Z,6.07
2018-07-17T17:17:37.940Z,7.15
2018-07-17T17:20:09.340Z,4.22
2018-07-17T17:22:42.387Z,6.90
2018-07-17T17:25:14.310Z,7.65
2018-07-17T17:27:47.415Z,5.55
2018-07-17T17:30:19.570Z,7.07
2018-07-17T17:32:51.031Z,3.10
2018-07-17T17:35:25.398Z,4.93
2018-07-17T17:37:59.991Z,3.22
2018-07-17T17:40:31.669Z,4.35
2018-07-17T17:43:05.251Z,4.82
2018-07-17T17:45:35.362Z,5.05
2018-07-17T17:48:08.272Z,5.35
2018-07-17T17:50:41.139Z,5.97
2018-07-17T17:53:14.025Z,5.53
2018-07-17T17:55:46.224Z,4.65
2018-07-17T17:58:17.759Z,3.42
2018-07-17T18:00:50.617Z,5.75
2018-07-17T18:03:22.129Z,5.35
2018-07-17T18:05:55.154Z,7.18
2018-07-17T18:08:28.231Z,4.28
2018-07-17T18:11:02.620Z,5.15
2018-07-17T18:13:35.584Z,7.25
2018-07-17T18:16:08.576Z,7.53
2018-07-17T18:18:42.637Z,6.93
2018-07-17T18:21:15.616Z,4.93
2018-07-17T18:23:48.893Z,8.18
2018-07-17T18:26:20.352Z,6.60
2018-07-17T18:28:54.767Z,5.87
2018-07-17T18:31:25.199Z,7.15
2018-07-17T18:33:58.081Z,5.37
2018-07-17T18:36:29.555Z,8.07
2018-07-17T18:39:01.159Z,7.25
2018-07-17T18:41:34.114Z,7.97
2018-07-17T18:44:05.586Z,4.80
2018-07-17T18:46:37.058Z,4.57
2018-07-17T18:49:10.047Z,7.03
2018-07-17T18:51:44.120Z,5.82
2018-07-17T18:54:17.224Z,8.02
2018-07-17T18:56:50.310Z,7.22
2018-07-17T18:59:21.677Z,7.40
2018-07-17T19:01:54.598Z,5.45
2018-07-17T19:04:27.844Z,7.30
2018-07-17T19:07:00.917Z,5.82
2018-07-17T19:09:35.625Z,4.87
2018-07-17T19:12:08.647Z,4.90
2018-07-17T19:14:42.175Z,7.40
2018-07-17T19:17:14.207Z,5.00
2018-07-17T19:19:45.720Z,6.82
2018-07-17T19:22:21.290Z,7.15
2018-07-17T19:24:52.945Z,5.50
2018-07-17T19:27:27.660Z,7.05
2018-07-17T19:30:00.252Z,4.72
2018-07-17T19:32:30.160Z,10.38
2018-07-17T19:35:03.500Z,7.53
2018-07-17T19:37:35.609Z,5.12
2018-07-17T19:40:09.526Z,15.90
2018-07-17T19:42:41.854Z,8.30
2018-07-17T19:45:14.831Z,7.60
2018-07-17T19:47:47.051Z,8.77
2018-07-17T19:50:20.861Z,7.62
2018-07-17T19:52:52.329Z,6.35
2018-07-17T19:55:23.839Z,5.97
2018-07-17T19:57:56.026Z,6.75
2018-07-17T20:00:29.262Z,4.40
2018-07-17T20:03:00.296Z,6.30
2018-07-17T20:05:33.394Z,8.30
2018-07-17T20:08:05.427Z,6.22
2018-07-17T20:10:37.060Z,4.78
2018-07-17T20:13:10.474Z,7.87
2018-07-17T20:15:39.622Z,12.55
2018-07-17T20:18:14.220Z,8.95
2018-07-17T20:20:46.617Z,11.02
2018-07-17T20:23:19.703Z,10.32
2018-07-17T20:25:51.300Z,13.30
2018-07-17T20:28:25.803Z,13.07
2018-07-17T20:31:00.276Z,9.38
2018-07-17T20:33:32.667Z,7.03
2018-07-17T20:36:04.116Z,6.95
2018-07-17T20:38:37.106Z,10.07
2018-07-17T20:41:10.419Z,8.98
2018-07-17T20:43:43.252Z,10.80
2018-07-17T20:46:15.250Z,12.18
2018-07-17T20:48:48.757Z,13.05
2018-07-17T20:51:20.193Z,10.10
2018-07-17T20:53:52.947Z,20.88
2018-07-17T20:56:27.772Z,9.10
2018-07-17T20:59:00.912Z,5.95
2018-07-17T21:01:32.582Z,12.30
2018-07-17T21:04:06.189Z,8.95
2018-07-17T21:06:38.396Z,15.15
2018-07-17T21:09:13.807Z,7.60
2018-07-17T21:11:47.669Z,14.05
2018-07-17T21:14:18.830Z,11.98
2018-07-17T21:16:50.400Z,16.77
2018-07-17T21:19:21.965Z,8.75
2018-07-17T21:21:53.750Z,5.95
2018-07-17T21:24:25.376Z,12.43
2018-07-17T21:26:57.080Z,7.35
2018-07-17T21:29:31.183Z,7.95
2018-07-17T21:32:04.146Z,8.27
2018-07-17T21:34:38.657Z,11.07
2018-07-17T21:37:11.711Z,8.57
2018-07-17T21:39:46.195Z,6.37
2018-07-17T21:42:18.324Z,6.57
2018-07-17T21:44:53.642Z,11.30
2018-07-17T21:47:26.957Z,7.05
2018-07-17T21:49:58.484Z,5.45
2018-07-17T21:52:32.901Z,7.60
2018-07-17T21:55:07.354Z,13.40
2018-07-17T21:57:38.860Z,6.47
2018-07-17T22:00:13.119Z,10.35
2018-07-17T22:02:46.206Z,12.90
2018-07-17T22:05:20.756Z,7.22
2018-07-17T22:07:53.765Z,7.87
2018-07-17T22:10:25.786Z,7.45
2018-07-17T22:12:59.142Z,8.95
2018-07-17T22:15:33.139Z,8.27
2018-07-17T22:18:06.325Z,8.00
2018-07-17T22:20:38.736Z,7.07
2018-07-17T22:23:10.321Z,8.07
2018-07-17T22:25:44.077Z,6.47
2018-07-17T22:28:18.729Z,7.53
2018-07-17T22:30:53.472Z,6.18
2018-07-17T22:33:26.481Z,5.80
2018-07-17T22:35:57.920Z,7.07
2018-07-17T22:38:30.476Z,5.75
2018-07-17T22:41:03.393Z,7.55
2018-07-17T22:43:37.925Z,6.80
2018-07-17T22:46:12.653Z,10.20
2018-07-17T22:48:45.850Z,6.78
2018-07-17T22:51:17.573Z,6.15
2018-07-17T22:53:50.532Z,6.72
2018-07-17T22:56:21.009Z,6.57
2018-07-17T22:58:54.262Z,7.37
2018-07-17T23:01:27.253Z,10.50
2018-07-17T23:03:57.158Z,10.90
2018-07-17T23:06:27.069Z,8.02
2018-07-17T23:08:57.103Z,8.32
2018-07-17T23:11:27.133Z,8.95
2018-07-17T23:14:01.855Z,6.78
2018-07-17T23:16:36.323Z,10.05
2018-07-17T23:19:11.013Z,10.93
2018-07-17T23:21:43.180Z,7.97
2018-07-17T23:24:16.769Z,10.50
2018-07-17T23:26:49.992Z,11.10
2018-07-17T23:29:21.483Z,13.23
2018-07-17T23:31:54.439Z,11.40
2018-07-17T23:34:29.309Z,9.18
2018-07-17T23:37:02.962Z,15.45
2018-07-17T23:39:34.732Z,16.05
2018-07-17T23:42:07.829Z,10.60
2018-07-17T23:44:39.304Z,9.52
2018-07-17T23:47:13.414Z,14.20
2018-07-17T23:49:46.941Z,9.73
2018-07-17T23:52:18.522Z,8.18
2018-07-17T23:54:50.258Z,10.25
2018-07-17T23:57:23.373Z,12.20
2018-07-17T23:59:56.459Z,14.32
